Time;durP1;ratioP1;P1;durP2;ratioP2;P2;SDS_P1;SDS_P2;PMS_P1;PMS_P2;Temp;Humidity;BMP_temperature;BMP_pressure;BME280_temperature;BME280_humidity;BME280_pressure;Samples;Min_cycle;Max_cycle;Signal;HPM_P1;HPM_P2
2022/11/15 00:02:24;;;;;;;71.40;68.55;;;13.80;95.30;;;;;;4873892;29;20115;-80
2022/11/15 00:04:50;;;;;;;73.25;70.25;;;13.80;95.30;;;;;;4841887;29;20482;-80
2022/11/15 00:07:15;;;;;;;76.60;73.50;;;13.90;95.40;;;;;;4841872;29;20074;-79
2022/11/15 00:09:41;;;;;;;74.78;71.88;;;13.90;95.30;;;;;;4857307;29;20096;-79
2022/11/15 00:12:07;;;;;;;66.55;63.95;;;14.00;95.30;;;;;;4851983;29;20057;-79
2022/11/15 00:14:33;;;;;;;74.50;71.60;;;13.90;95.30;;;;;;4872795;29;20033;-79
2022/11/15 00:16:58;;;;;;;73.32;70.47;;;14.00;95.30;;;;;;4857077;29;20433;-78
2022/11/15 00:19:24;;;;;;;74.78;71.88;;;14.00;95.30;;;;;;4872476;29;20093;-78
2022/11/15 00:21:50;;;;;;;79.80;76.70;;;14.00;95.30;;;;;;4841404;29;20041;-78
2022/11/15 00:24:16;;;;;;;69.43;66.72;;;14.10;95.40;;;;;;4873603;29;20377;-78
2022/11/15 00:26:41;;;;;;;73.35;70.45;;;14.10;95.40;;;;;;4856847;29;20128;-78
2022/11/15 00:29:07;;;;;;;67.30;64.70;;;14.10;95.30;;;;;;4856919;29;20026;-78
2022/11/15 00:31:33;;;;;;;74.03;71.13;;;14.10;95.40;;;;;;4841834;29;20037;-78
2022/11/15 00:33:59;;;;;;;68.97;66.28;;;14.10;95.40;;;;;;4872485;29;20037;-79
2022/11/15 00:36:24;;;;;;;73.80;70.90;;;14.10;95.40;;;;;;4875188;29;20080;-78
2022/11/15 00:38:50;;;;;;;62.05;59.65;;;14.20;95.40;;;;;;4860485;29;20055;-78
2022/11/15 00:41:16;;;;;;;69.00;66.30;;;14.20;95.30;;;;;;4877146;29;20052;-78
2022/11/15 00:43:43;;;;;;;62.25;59.85;;;14.20;95.30;;;;;;4860257;29;20561;-78
2022/11/15 00:46:09;;;;;;;59.63;57.33;;;14.20;95.40;;;;;;4875894;29;20045;-78
2022/11/15 00:48:35;;;;;;;;;;;14.20;95.40;;;;;;4877517;29;20086;-78
2022/11/15 00:51:01;;;;;;;55.75;53.65;;;14.30;95.50;;;;;;4860162;29;19916;-78
2022/11/15 00:53:27;;;;;;;57.35;55.15;;;14.40;95.50;;;;;;4860190;29;20062;-78
2022/11/15 00:55:53;;;;;;;57.40;55.20;;;14.40;95.50;;;;;;4876972;29;20397;-78
2022/11/15 00:58:19;;;;;;;61.00;58.70;;;14.40;95.40;;;;;;4859901;29;20033;-78
2022/11/15 01:00:44;;;;;;;;;;;14.40;95.40;;;;;;4860307;29;20033;-78
2022/11/15 01:03:10;;;;;;;57.45;55.25;;;14.50;95.50;;;;;;4876657;29;20441;-79
2022/11/15 01:05:39;;;;;;;55.17;53.08;;;14.50;95.40;;;;;;4859816;29;20064;-78
2022/11/15 01:08:05;;;;;;;64.72;62.22;;;14.60;95.50;;;;;;4875458;29;20415;-78
2022/11/15 01:10:30;;;;;;;81.38;78.18;;;14.60;95.40;;;;;;4875194;29;20058;-78
2022/11/15 01:12:56;;;;;;;79.63;76.53;;;14.60;95.30;;;;;;4876545;29;20040;-78
2022/11/15 01:15:22;;;;;;;83.95;80.65;;;14.50;95.30;;;;;;4876419;29;20037;-77
2022/11/15 01:17:48;;;;;;;90.22;86.68;;;14.40;95.30;;;;;;4844330;29;20343;-79
2022/11/15 01:20:14;;;;;;;89.10;85.60;;;14.30;95.30;;;;;;4844411;29;20048;-79
2022/11/15 01:22:39;;;;;;;85.68;82.28;;;14.20;95.60;;;;;;4844447;29;20123;-79
2022/11/15 01:25:05;;;;;;;75.60;72.60;;;14.20;95.40;;;;;;4844225;29;20041;-80
2022/11/15 01:27:31;;;;;;;80.22;77.05;;;14.20;95.50;;;;;;4844507;29;20033;-79
2022/11/15 01:29:56;;;;;;;75.57;72.68;;;14.20;95.50;;;;;;4844081;29;20043;-80
2022/11/15 01:32:22;;;;;;;78.63;75.53;;;14.20;95.50;;;;;;4859539;29;20037;-80
2022/11/15 01:34:48;;;;;;;81.85;78.65;;;14.20;95.50;;;;;;4859686;29;20070;-80
2022/11/15 01:37:14;;;;;;;85.40;82.10;;;14.20;95.50;;;;;;4844111;29;20040;-79
2022/11/15 01:39:39;;;;;;;133.98;128.75;;;14.20;95.40;;;;;;4844191;29;20438;-79
2022/11/15 01:42:05;;;;;;;148.25;142.35;;;14.00;94.80;;;;;;4859489;29;20040;-80
2022/11/15 01:44:30;;;;;;;152.60;146.50;;;13.60;94.50;;;;;;4843925;29;20124;-80
2022/11/15 01:46:59;;;;;;;150.20;144.10;;;13.20;94.50;;;;;;4858075;29;20072;-79
2022/11/15 01:49:26;;;;;;;151.30;145.18;;;12.70;94.60;;;;;;4859295;29;20057;-79
2022/11/15 01:51:53;;;;;;;147.35;141.35;;;12.40;94.80;;;;;;4875692;29;20112;-79
2022/11/15 01:54:21;;;;;;;145.45;139.50;;;12.20;94.90;;;;;;4875736;29;20032;-79
2022/11/15 01:56:54;;;;;;;139.10;133.40;;;12.00;95.00;;;;;;4843628;29;20037;-72
2022/11/15 01:59:21;;;;;;;138.25;132.55;;;11.90;95.10;;;;;;4858972;29;20121;-80
2022/11/15 02:01:46;;;;;;;136.38;130.77;;;11.80;95.10;;;;;;4858773;29;20037;-80
2022/11/15 02:04:20;;;;;;;133.32;127.82;;;11.70;95.10;;;;;;4858853;29;20551;-80
2022/11/15 02:06:48;;;;;;;125.90;120.70;;;11.60;95.10;;;;;;4860742;29;20041;-80
2022/11/15 02:09:14;;;;;;;117.75;112.95;;;11.50;95.10;;;;;;4859020;29;20065;-80
2022/11/15 02:11:40;;;;;;;112.47;107.93;;;11.50;95.10;;;;;;4875233;29;20059;-79
2022/11/15 02:14:07;;;;;;;106.20;101.93;;;11.40;95.10;;;;;;4858986;29;20036;-80
2022/11/15 02:17:03;;;;;;;100.78;96.78;;;11.40;95.10;;;;;;4875811;29;20031;-79
2022/11/15 02:19:32;;;;;;;94.05;90.35;;;11.30;95.10;;;;;;4875332;29;20119;-79
2022/11/15 02:22:03;;;;;;;85.55;82.20;;;11.30;95.10;;;;;;4875207;29;20032;-79
2022/11/15 02:24:50;;;;;;;82.45;79.25;;;11.30;95.10;;;;;;4858551;29;20033;-79
2022/11/15 02:27:44;;;;;;;80.78;77.68;;;11.30;95.10;;;;;;4875200;29;20033;-79
2022/11/15 02:30:28;;;;;;;79.07;76.03;;;11.30;95.00;;;;;;4858231;29;20509;-79
2022/11/15 02:33:31;;;;;;;83.60;80.35;;;11.30;95.00;;;;;;4858223;29;20098;-79
2022/11/15 02:36:13;;;;;;;81.55;78.38;;;11.20;95.00;;;;;;4847147;29;20037;-79
2022/11/15 02:38:59;;;;;;;82.82;79.63;;;11.30;95.00;;;;;;4858133;29;20127;-79
2022/11/15 02:43:56;;;;;;;83.03;79.82;;;11.30;95.00;;;;;;4858147;29;20039;-79
2022/11/15 02:44:55;;;;;;;80.80;77.70;;;11.30;95.00;;;;;;4853770;29;20071;-79
2022/11/15 02:47:24;;;;;;;83.88;80.60;;;11.30;95.00;;;;;;4874323;29;20037;-80
2022/11/15 02:49:56;;;;;;;84.68;81.38;;;11.30;95.00;;;;;;4874854;29;20490;-79
2022/11/15 02:52:25;;;;;;;86.20;82.90;;;11.30;95.00;;;;;;4874867;29;20039;-80
2022/11/15 02:55:01;;;;;;;81.95;78.75;;;11.30;95.00;;;;;;4843122;29;20041;-80
2022/11/15 02:57:52;;;;;;;86.63;83.23;;;11.30;94.90;;;;;;4857988;29;20037;-80
2022/11/15 03:00:19;;;;;;;83.43;80.13;;;11.30;95.00;;;;;;4858017;29;20040;-80
2022/11/15 03:03:09;;;;;;;90.28;86.78;;;11.30;94.90;;;;;;4842640;29;20170;-80
2022/11/15 03:05:41;;;;;;;87.10;83.70;;;11.40;95.00;;;;;;4874688;29;20040;-80
2022/11/15 03:08:10;;;;;;;88.97;85.50;;;11.40;94.90;;;;;;4874664;29;20478;-80
2022/11/15 03:10:51;;;;;;;87.88;84.47;;;11.40;94.90;;;;;;4874366;29;20057;-80
2022/11/15 03:13:27;;;;;;;90.53;87.03;;;11.40;94.90;;;;;;4874486;29;20053;-80
2022/11/15 03:16:08;;;;;;;87.20;83.80;;;11.40;94.90;;;;;;4857920;29;20506;-81
2022/11/15 03:18:38;;;;;;;87.43;84.03;;;11.40;94.90;;;;;;4858038;29;20056;-80
2022/11/15 03:21:07;;;;;;;88.05;84.65;;;11.30;94.90;;;;;;4857531;29;20616;-80
2022/11/15 03:23:36;;;;;;;90.22;86.72;;;11.30;94.90;;;;;;4857628;29;20037;-80
2022/11/15 03:26:04;;;;;;;88.95;85.45;;;11.30;94.90;;;;;;4874319;29;20030;-80
2022/11/15 03:28:42;;;;;;;85.68;82.38;;;11.30;94.90;;;;;;4842636;29;20037;-80
2022/11/15 03:33:57;;;;;;;82.45;79.25;;;11.20;94.90;;;;;;4874626;29;20055;-80
2022/11/15 03:36:25;;;;;;;84.10;80.80;;;11.10;94.90;;;;;;4873177;29;20040;-80
2022/11/15 03:38:56;;;;;;;83.82;80.53;;;11.10;94.90;;;;;;4857435;29;20060;-80
2022/11/15 03:41:55;;;;;;;86.50;83.10;;;11.10;95.00;;;;;;4875773;29;20336;-79
2022/11/15 03:44:45;;;;;;;83.93;80.63;;;11.10;95.10;;;;;;4857670;29;20028;-80
2022/11/15 03:47:21;;;;;;;84.10;80.80;;;11.10;95.00;;;;;;4874163;29;20085;-80
2022/11/15 03:49:57;;;;;;;86.70;83.30;;;11.10;95.00;;;;;;4857509;29;20093;-80
2022/11/15 03:52:23;;;;;;;86.37;82.97;;;11.10;94.90;;;;;;4857295;29;20029;-80
2022/11/15 03:54:56;;;;;;;85.75;82.35;;;11.10;94.90;;;;;;4857267;29;20270;-80
2022/11/15 03:57:22;;;;;;;87.45;84.05;;;11.10;94.90;;;;;;4857342;29;20529;-80
2022/11/15 03:59:48;;;;;;;;;;;11.10;94.90;;;;;;4874833;29;20045;-80
2022/11/15 04:02:15;;;;;;;88.65;85.15;;;11.10;94.90;;;;;;4873919;29;19969;-80
2022/11/15 04:04:41;;;;;;;87.13;83.72;;;11.10;94.90;;;;;;4857353;29;20029;-80
2022/11/15 04:07:06;;;;;;;88.15;84.65;;;11.00;94.90;;;;;;4857174;29;20442;-81
2022/11/15 04:09:32;;;;;;;85.20;81.85;;;11.00;94.90;;;;;;4857242;29;20045;-81
2022/11/15 04:11:58;;;;;;;91.53;87.93;;;11.00;94.80;;;;;;4855257;29;20053;-80
2022/11/15 04:14:23;;;;;;;89.15;85.65;;;10.90;94.80;;;;;;4861069;29;20476;-81
2022/11/15 04:16:49;;;;;;;86.90;83.50;;;10.90;94.80;;;;;;4860997;29;20085;-80
2022/11/15 04:24:43;;;;;;;77.53;74.53;;;10.60;94.80;;;;;;4863267;29;20512;-81
2022/11/15 04:27:09;;;;;;;81.28;78.10;;;10.60;94.90;;;;;;4860986;29;20127;-80
2022/11/15 04:29:34;;;;;;;78.22;75.15;;;10.60;94.90;;;;;;4877609;29;20030;-80
2022/11/15 04:32:05;;;;;;;78.65;75.55;;;10.50;94.90;;;;;;4860598;29;20029;-81
2022/11/15 04:34:30;;;;;;;77.28;74.28;;;10.50;94.90;;;;;;4877444;29;20450;-80
2022/11/15 04:37:11;;;;;;;77.88;74.82;;;10.40;94.90;;;;;;4860464;29;20071;-81
2022/11/15 04:39:37;;;;;;;74.03;71.15;;;10.40;95.00;;;;;;4877199;29;20490;-81
2022/11/15 04:42:03;;;;;;;70.45;67.75;;;10.40;95.00;;;;;;4875644;29;20040;-81
2022/11/15 04:44:29;;;;;;;68.63;66.00;;;10.40;95.00;;;;;;4860274;29;20060;-81
2022/11/15 04:46:54;;;;;;;69.85;67.15;;;10.30;94.90;;;;;;4860103;29;20036;-81
2022/11/15 04:49:20;;;;;;;66.03;63.53;;;10.30;94.90;;;;;;4877228;29;20048;-81
2022/11/15 04:51:46;;;;;;;70.43;67.72;;;10.30;94.90;;;;;;4875616;29;20029;-81
2022/11/15 04:54:12;;;;;;;68.63;66.03;;;10.30;95.10;;;;;;4844682;29;20048;-81
2022/11/15 04:56:37;;;;;;;65.40;62.90;;;10.30;94.90;;;;;;4859953;29;20064;-81
2022/11/15 04:59:03;;;;;;;65.72;63.22;;;10.30;94.90;;;;;;4875519;29;20037;-81
2022/11/15 05:01:29;;;;;;;67.35;64.75;;;10.30;94.90;;;;;;4859745;29;20041;-81
2022/11/15 05:06:38;;;;;;;64.20;61.70;;;10.30;94.90;;;;;;4875550;29;20044;-81
2022/11/15 05:09:04;;;;;;;63.47;61.08;;;10.30;94.90;;;;;;4859777;29;20482;-81
2022/11/15 05:11:30;;;;;;;65.40;62.90;;;10.30;94.90;;;;;;4859573;29;20568;-81
2022/11/15 05:13:56;;;;;;;63.75;61.35;;;10.30;94.90;;;;;;4844596;29;20426;-81
2022/11/15 05:16:22;;;;;;;63.83;61.42;;;10.20;94.90;;;;;;4864474;29;20084;-80
2022/11/15 05:18:51;;;;;;;60.70;58.40;;;10.20;94.80;;;;;;4876793;29;20033;-81
2022/11/15 05:21:18;;;;;;;64.55;62.08;;;10.20;94.80;;;;;;4859544;29;20056;-81
2022/11/15 05:23:43;;;;;;;;;;;10.20;94.80;;;;;;4860149;29;20116;-80
2022/11/15 05:26:10;;;;;;;65.80;63.30;;;10.20;94.80;;;;;;4876361;29;20023;-81
2022/11/15 05:28:36;;;;;;;67.75;65.15;;;10.20;94.80;;;;;;4859802;29;20572;-81
2022/11/15 05:31:14;;;;;;;70.50;67.80;;;10.20;94.80;;;;;;4859559;29;20037;-81
2022/11/15 05:33:42;;;;;;;68.30;65.70;;;10.10;94.80;;;;;;4859702;29;20029;-81
2022/11/15 05:36:31;;;;;;;70.47;67.78;;;10.10;94.80;;;;;;4859497;29;20029;-80
2022/11/15 05:38:56;;;;;;;69.22;66.57;;;10.10;94.80;;;;;;4859290;29;20029;-81
2022/11/15 05:41:37;;;;;;;68.35;65.75;;;10.10;94.80;;;;;;4843858;29;20048;-81
2022/11/15 05:44:07;;;;;;;71.68;68.97;;;10.00;94.80;;;;;;4859185;29;20557;-81
2022/11/15 05:46:34;;;;;;;69.63;66.93;;;10.00;94.80;;;;;;4875883;29;20061;-80
2022/11/15 05:49:00;;;;;;;71.15;68.45;;;10.00;94.80;;;;;;4875972;29;20040;-80
2022/11/15 05:51:28;;;;;;;72.80;70.00;;;9.90;94.80;;;;;;4859526;29;20029;-81
2022/11/15 05:53:56;;;;;;;72.93;70.13;;;9.90;94.80;;;;;;4875904;29;20037;-80
2022/11/15 05:56:22;;;;;;;72.68;69.90;;;9.90;94.80;;;;;;4859066;29;20033;-81
2022/11/15 05:58:48;;;;;;;75.88;72.97;;;9.80;94.80;;;;;;4858902;29;20143;-80
2022/11/15 06:01:14;;;;;;;73.70;70.90;;;9.80;94.80;;;;;;4858877;29;20037;-79
2022/11/15 06:03:39;;;;;;;69.20;66.50;;;9.80;94.80;;;;;;4843553;29;20443;-81
2022/11/15 06:06:05;;;;;;;68.82;66.15;;;9.80;94.80;;;;;;4858935;29;20093;-80
2022/11/15 06:08:31;;;;;;;68.40;65.80;;;9.70;94.80;;;;;;4859004;29;20086;-80
2022/11/15 06:11:02;;;;;;;64.30;61.80;;;9.70;94.80;;;;;;4838476;29;20536;-80
2022/11/15 06:13:28;;;;;;;64.95;62.45;;;9.70;94.80;;;;;;4856895;29;20033;-80
2022/11/15 06:15:58;;;;;;;65.57;63.08;;;9.70;94.80;;;;;;4840294;29;20061;-80
2022/11/15 06:18:24;;;;;;;67.10;64.55;;;9.70;94.80;;;;;;4856832;29;20041;-81
2022/11/15 06:20:50;;;;;;;67.95;65.35;;;9.70;94.80;;;;;;4856537;29;20108;-81
2022/11/15 06:23:15;;;;;;;68.47;65.88;;;9.70;94.80;;;;;;4856866;29;20102;-80
2022/11/15 06:25:41;;;;;;;65.47;62.97;;;9.70;94.80;;;;;;4825002;29;20685;-80
2022/11/15 06:28:07;;;;;;;65.05;62.55;;;9.60;94.70;;;;;;4840918;29;20038;-81
2022/11/15 06:30:32;;;;;;;65.53;63.03;;;9.60;94.70;;;;;;4840220;29;20021;-83
2022/11/15 06:33:03;;;;;;;66.03;63.50;;;9.60;94.70;;;;;;4824415;29;20057;-80
2022/11/15 06:35:29;;;;;;;66.28;63.78;;;9.60;94.70;;;;;;4825093;29;20049;-80
2022/11/15 06:37:55;;;;;;;;;;;9.50;94.70;;;;;;4840182;29;20102;-80
2022/11/15 06:40:21;;;;;;;68.95;66.32;;;9.60;94.70;;;;;;4856722;29;19955;-79
2022/11/15 06:42:47;;;;;;;64.28;61.78;;;9.60;94.70;;;;;;4839927;29;20394;-78
2022/11/15 06:45:12;;;;;;;64.03;61.53;;;9.50;94.70;;;;;;4824609;29;20102;-79
2022/11/15 06:47:47;;;;;;;66.88;64.28;;;9.50;94.70;;;;;;4824744;29;20498;-79
2022/11/15 06:50:13;;;;;;;64.50;62.00;;;9.50;94.70;;;;;;4841650;29;20040;-79
2022/11/15 06:52:39;;;;;;;64.68;62.17;;;9.40;94.70;;;;;;4842056;29;20471;-79
2022/11/15 06:55:05;;;;;;;64.10;61.63;;;9.40;94.70;;;;;;4839932;29;20034;-78
2022/11/15 06:57:32;;;;;;;63.55;61.15;;;9.40;94.70;;;;;;4824653;29;20040;-80
2022/11/15 06:59:57;;;;;;;;;;;9.40;94.70;;;;;;4840225;29;20042;-79
2022/11/15 07:02:23;;;;;;;58.72;56.53;;;9.40;94.80;;;;;;4839216;29;19986;-80
2022/11/15 07:04:49;;;;;;;55.80;53.70;;;9.40;94.70;;;;;;4824499;29;20088;-79
2022/11/15 07:07:14;;;;;;;56.42;54.30;;;9.40;94.70;;;;;;4840009;29;20033;-80
2022/11/15 07:09:40;;;;;;;55.83;53.70;;;9.30;94.70;;;;;;4839999;29;20052;-80
2022/11/15 07:12:06;;;;;;;56.40;54.30;;;9.30;94.70;;;;;;4848428;29;20084;-80
2022/11/15 07:14:31;;;;;;;60.67;58.38;;;9.30;94.70;;;;;;4857834;29;20049;-79
2022/11/15 07:16:57;;;;;;;58.97;56.70;;;9.20;94.70;;;;;;4874566;29;20120;-80
2022/11/15 07:19:23;;;;;;;57.75;55.55;;;9.20;94.70;;;;;;4857977;29;20033;-80
2022/11/15 07:21:48;;;;;;;59.35;57.05;;;9.20;94.70;;;;;;4873330;29;20517;-79
2022/11/15 07:24:14;;;;;;;58.20;55.95;;;9.10;94.70;;;;;;4842300;29;20040;-80
2022/11/15 07:26:40;;;;;;;59.97;57.58;;;9.10;94.70;;;;;;4874309;29;20055;-81
2022/11/15 07:29:15;;;;;;;59.08;56.75;;;9.00;94.60;;;;;;4874831;29;20025;-81
2022/11/15 07:31:40;;;;;;;60.15;57.75;;;9.00;94.70;;;;;;4858780;29;20029;-83
2022/11/15 07:34:06;;;;;;;60.25;57.85;;;8.90;94.60;;;;;;4858269;29;20124;-80
2022/11/15 07:36:41;;;;;;;58.03;55.72;;;8.90;94.70;;;;;;4858449;29;20101;-82
2022/11/15 07:39:07;;;;;;;59.35;57.05;;;8.80;94.70;;;;;;4858764;29;20040;-83
2022/11/15 07:41:33;;;;;;;56.63;54.42;;;8.80;94.70;;;;;;4857878;29;20466;-82
2022/11/15 07:44:02;;;;;;;56.40;54.17;;;8.70;94.70;;;;;;4872912;29;20403;-81
2022/11/15 07:46:28;;;;;;;56.22;54.03;;;8.70;94.70;;;;;;4857542;29;20076;-81
2022/11/15 07:48:53;;;;;;;58.97;56.67;;;8.60;94.70;;;;;;4842387;29;20080;-82
2022/11/15 07:51:20;;;;;;;58.65;56.35;;;8.60;94.70;;;;;;4874605;29;20394;-82
2022/11/15 07:53:45;;;;;;;59.47;57.15;;;8.60;94.70;;;;;;4874779;29;20060;-81
2022/11/15 07:56:11;;;;;;;58.85;56.55;;;8.60;94.80;;;;;;4857543;29;20279;-80
2022/11/15 07:58:37;;;;;;;57.00;54.70;;;8.60;94.80;;;;;;4873958;29;20029;-81
2022/11/15 08:01:05;;;;;;;60.55;58.15;;;8.50;94.70;;;;;;4857622;29;20037;-81
2022/11/15 08:03:34;;;;;;;56.70;54.50;;;8.50;94.70;;;;;;4874974;29;20028;-81
2022/11/15 08:06:00;;;;;;;56.20;54.00;;;8.50;94.70;;;;;;4857784;29;20029;-80
2022/11/15 08:08:26;;;;;;;59.50;57.10;;;8.40;94.70;;;;;;4858730;29;20478;-82
2022/11/15 08:10:58;;;;;;;60.97;58.58;;;8.40;94.70;;;;;;4873211;29;20056;-81
2022/11/15 08:13:23;;;;;;;58.67;56.38;;;8.30;94.80;;;;;;4874047;29;20052;-80
2022/11/15 08:15:49;;;;;;;62.05;59.55;;;8.30;94.70;;;;;;4858309;29;20033;-79
2022/11/15 08:18:16;;;;;;;62.70;60.20;;;8.30;94.80;;;;;;4856958;29;20068;-80
2022/11/15 08:20:43;;;;;;;61.10;58.65;;;8.20;94.80;;;;;;4873597;29;20036;-82
2022/11/15 08:23:13;;;;;;;61.60;59.10;;;8.30;94.80;;;;;;4859578;29;20040;-82
2022/11/15 08:25:39;;;;;;;60.38;57.97;;;8.30;94.80;;;;;;4860362;29;20044;-81
2022/11/15 08:28:06;;;;;;;;;;;8.30;94.80;;;;;;4857608;29;20034;-81
2022/11/15 08:30:36;;;;;;;60.03;57.63;;;8.30;94.70;;;;;;4856819;29;19919;-81
2022/11/15 08:33:02;;;;;;;56.35;54.15;;;8.20;94.70;;;;;;4874263;29;20033;-81
2022/11/15 08:35:28;;;;;;;52.97;50.88;;;8.20;94.70;;;;;;4856859;29;20406;-80
2022/11/15 08:37:55;;;;;;;54.08;51.97;;;8.20;94.80;;;;;;4856954;29;20033;-79
2022/11/15 08:40:22;;;;;;;50.92;48.92;;;8.20;94.90;;;;;;4856334;29;20490;-77
2022/11/15 08:42:47;;;;;;;51.28;49.28;;;8.30;95.00;;;;;;4872032;29;20405;-77
2022/11/15 08:45:13;;;;;;;48.25;46.35;;;8.30;95.00;;;;;;4872885;29;20033;-77
2022/11/15 08:47:39;;;;;;;47.60;45.70;;;8.50;95.00;;;;;;4856472;29;20097;-77
2022/11/15 08:50:05;;;;;;;47.75;45.85;;;8.50;95.00;;;;;;4856743;29;20037;-78
2022/11/15 08:52:31;;;;;;;43.33;41.63;;;8.70;95.00;;;;;;4856371;29;20388;-78
2022/11/15 08:54:57;;;;;;;34.13;32.83;;;8.80;95.10;;;;;;4840968;29;20039;-77
2022/11/15 08:57:23;;;;;;;23.58;22.65;;;8.90;95.40;;;;;;4859128;29;20037;-77
2022/11/15 08:59:49;;;;;;;27.58;26.48;;;9.40;96.10;;;;;;4859948;29;20037;-77
2022/11/15 09:02:15;;;;;;;22.35;21.45;;;9.90;96.40;;;;;;4875346;29;20041;-77
2022/11/15 09:04:42;;;;;;;11.80;11.30;;;10.50;96.60;;;;;;4859835;29;20059;-77
2022/11/15 09:07:11;;;;;;;14.07;13.48;;;11.20;96.80;;;;;;4876428;29;20033;-77
2022/11/15 09:09:37;;;;;;;12.60;12.00;;;12.00;96.90;;;;;;4844327;29;20528;-77
2022/11/15 09:12:03;;;;;;;;;;;12.60;96.20;;;;;;4868028;29;20110;-77
2022/11/15 09:14:29;;;;;;;14.25;13.65;;;12.70;95.60;;;;;;4844938;29;20285;-77
2022/11/15 09:16:55;;;;;;;15.40;14.75;;;12.60;95.10;;;;;;4858412;29;20029;-77
2022/11/15 09:19:21;;;;;;;15.18;14.57;;;12.30;94.80;;;;;;4842008;29;20086;-77
2022/11/15 09:21:47;;;;;;;17.05;16.35;;;12.00;94.70;;;;;;4858362;29;20041;-78
2022/11/15 09:24:13;;;;;;;20.58;19.77;;;11.70;94.70;;;;;;4858234;29;20040;-77
2022/11/15 09:26:39;;;;;;;19.63;18.83;;;11.40;94.70;;;;;;4841379;29;20174;-76
2022/11/15 09:29:05;;;;;;;20.17;19.38;;;11.10;94.70;;;;;;4841599;29;20045;-76
2022/11/15 09:31:30;;;;;;;25.00;24.00;;;10.90;94.80;;;;;;4859126;29;20030;-75
2022/11/15 09:33:56;;;;;;;24.40;23.42;;;10.80;94.90;;;;;;4848369;29;20135;-79
2022/11/15 09:36:22;;;;;;;22.20;21.30;;;10.70;95.20;;;;;;4859749;29;20117;-79
2022/11/15 09:38:48;;;;;;;17.45;16.75;;;10.80;95.60;;;;;;4859821;29;20060;-79
2022/11/15 09:41:14;;;;;;;;;;;11.10;95.80;;;;;;4860636;29;20482;-78
2022/11/15 09:43:48;;;;;;;15.45;14.77;;;11.40;95.90;;;;;;4860580;29;19972;-78
2022/11/15 09:46:14;;;;;;;15.80;15.10;;;11.80;95.80;;;;;;4878907;29;20072;-79
2022/11/15 09:49:00;;;;;;;16.70;16.00;;;12.00;95.50;;;;;;4860756;29;20490;-77
2022/11/15 09:51:47;;;;;;;14.88;14.27;;;12.00;95.00;;;;;;4876939;29;20081;-77
2022/11/15 09:54:31;;;;;;;17.65;16.95;;;11.80;94.70;;;;;;4860010;29;20618;-76
2022/11/15 09:57:15;;;;;;;18.00;17.30;;;11.60;94.70;;;;;;4877599;29;20028;-76
2022/11/15 10:00:03;;;;;;;17.50;16.80;;;11.40;94.70;;;;;;4878734;29;20032;-76
2022/11/15 10:02:58;;;;;;;19.83;19.02;;;11.20;94.80;;;;;;4877961;29;20044;-76
2022/11/15 10:05:25;;;;;;;17.95;17.25;;;11.10;94.90;;;;;;4878169;29;20037;-75
2022/11/15 10:08:11;;;;;;;18.77;17.98;;;11.10;94.90;;;;;;4877833;29;20112;-75
2022/11/15 10:10:41;;;;;;;19.42;18.63;;;11.10;94.90;;;;;;4861073;29;20374;-77
2022/11/15 10:13:35;;;;;;;9.27;8.85;;;11.10;94.90;;;;;;4877575;29;20078;-71
2022/11/15 10:16:12;;;;;;;5.13;4.82;;;11.80;96.50;;;;;;4878313;29;20060;-77
2022/11/15 10:19:12;;;;;;;1.98;1.88;;;13.20;97.10;;;;;;4861075;29;20385;-75
2022/11/15 10:21:48;;;;;;;0.70;0.70;;;14.70;97.00;;;;;;4877848;29;20017;-76
2022/11/15 10:24:18;;;;;;;;;;;16.00;96.50;;;;;;4878072;29;20033;-76
2022/11/15 10:26:50;;;;;;;0.20;0.20;;;16.90;96.10;;;;;;4877582;29;20391;-76
2022/11/15 10:29:20;;;;;;;0.10;0.10;;;17.70;95.90;;;;;;4860759;29;20033;-76
2022/11/15 10:31:47;;;;;;;0.10;0.10;;;18.20;95.70;;;;;;4877406;29;20041;-78
2022/11/15 10:34:19;;;;;;;0.10;0.10;;;18.70;95.70;;;;;;4860890;29;20029;-78
2022/11/15 10:37:00;;;;;;;0.08;0.08;;;19.00;95.50;;;;;;4877598;29;20121;-77
2022/11/15 10:39:27;;;;;;;0.10;0.10;;;19.30;95.60;;;;;;4860802;29;20036;-76
2022/11/15 10:41:53;;;;;;;0.00;0.00;;;19.70;95.80;;;;;;4845205;29;20043;-77
2022/11/15 10:44:23;;;;;;;0.00;0.00;;;19.90;95.70;;;;;;4860289;29;20057;-76
2022/11/15 10:46:55;;;;;;;0.00;0.00;;;20.10;95.80;;;;;;4859989;29;20036;-77
2022/11/15 10:49:22;;;;;;;0.00;0.00;;;20.30;95.80;;;;;;4876852;29;20025;-77
2022/11/15 10:52:10;;;;;;;0.00;0.00;;;20.50;95.70;;;;;;4859484;29;20056;-77
2022/11/15 10:55:10;;;;;;;0.00;0.00;;;20.40;95.50;;;;;;4857087;29;20052;-77
2022/11/15 10:57:38;;;;;;;0.00;0.00;;;20.40;95.80;;;;;;4850950;29;20325;-77
2022/11/15 11:00:27;;;;;;;0.00;0.00;;;20.40;95.60;;;;;;4868954;29;20032;-77
2022/11/15 11:02:56;;;;;;;0.00;0.00;;;20.30;95.70;;;;;;4876864;29;20394;-76
2022/11/15 11:05:36;;;;;;;0.00;0.00;;;20.40;95.90;;;;;;4863504;29;20033;-77
2022/11/15 11:08:07;;;;;;;0.00;0.00;;;20.40;95.80;;;;;;4858861;29;20033;-74
2022/11/15 11:10:34;;;;;;;0.00;0.00;;;20.40;95.80;;;;;;4859512;29;20025;-76
2022/11/15 11:13:32;;;;;;;0.00;0.00;;;20.40;95.90;;;;;;4876304;29;20033;-77
2022/11/15 11:16:19;;;;;;;0.00;0.00;;;20.40;95.80;;;;;;4876935;29;20025;-81
2022/11/15 11:19:15;;;;;;;0.00;0.00;;;20.50;95.90;;;;;;4876758;29;20052;-81
2022/11/15 11:22:01;;;;;;;0.00;0.00;;;20.50;95.80;;;;;;4878511;29;20343;-81
2022/11/15 11:24:36;;;;;;;0.00;0.00;;;20.50;96.00;;;;;;4877736;29;20080;-81
2022/11/15 11:27:26;;;;;;;0.00;0.00;;;20.50;96.10;;;;;;4879261;29;20125;-77
2022/11/15 11:30:14;;;;;;;0.00;0.00;;;20.70;96.30;;;;;;4859833;29;20040;-76
2022/11/15 11:32:58;;;;;;;0.00;0.00;;;21.10;96.60;;;;;;4875730;29;20117;-75
2022/11/15 11:35:41;;;;;;;0.00;0.00;;;21.40;96.60;;;;;;4877291;29;20036;-75
2022/11/15 11:38:51;;;;;;;0.00;0.00;;;21.50;96.20;;;;;;4860075;29;20033;-77
2022/11/15 11:41:38;;;;;;;0.00;0.00;;;21.40;96.00;;;;;;4858829;29;20053;-78
2022/11/15 11:44:26;;;;;;;0.00;0.00;;;21.40;96.10;;;;;;4844118;29;20042;-78
2022/11/15 11:47:02;;;;;;;0.00;0.00;;;21.30;96.40;;;;;;4874034;29;20029;-79
2022/11/15 11:49:37;;;;;;;0.00;0.00;;;21.20;96.30;;;;;;4875129;29;20025;-75
2022/11/15 11:52:21;;;;;;;0.00;0.00;;;21.20;96.30;;;;;;4874397;29;20036;-74
2022/11/15 11:54:47;;;;;;;0.00;0.00;;;21.20;96.40;;;;;;4874914;29;20073;-77
2022/11/15 11:57:19;;;;;;;;;;;21.20;96.40;;;;;;4876054;29;20081;-76
2022/11/15 11:59:53;;;;;;;0.00;0.00;;;21.00;96.00;;;;;;4875935;29;20364;-77
2022/11/15 12:02:29;;;;;;;0.00;0.00;;;20.90;96.00;;;;;;4874918;29;20111;-78
2022/11/15 12:05:18;;;;;;;0.00;0.00;;;20.70;96.10;;;;;;4859900;29;20116;-76
2022/11/15 12:07:46;;;;;;;0.00;0.00;;;20.60;96.00;;;;;;4874822;29;20045;-77
2022/11/15 12:10:38;;;;;;;0.00;0.00;;;20.50;96.10;;;;;;4875243;29;20033;-78
2022/11/15 12:13:07;;;;;;;0.00;0.00;;;20.40;96.10;;;;;;4838696;29;20650;-78
2022/11/15 12:15:40;;;;;;;0.00;0.00;;;20.20;95.90;;;;;;4855640;29;20041;-78
2022/11/15 12:18:12;;;;;;;0.00;0.00;;;20.10;96.00;;;;;;4846150;29;20040;-75
2022/11/15 12:20:41;;;;;;;0.17;0.17;;;19.90;96.00;;;;;;4837153;29;20034;-75
2022/11/15 12:23:42;;;;;;;0.00;0.00;;;19.90;96.00;;;;;;4845774;29;20041;-79
2022/11/15 12:26:28;;;;;;;0.00;0.00;;;19.50;95.40;;;;;;4831594;29;20106;-80
2022/11/15 12:29:04;;;;;;;0.00;0.00;;;18.90;95.00;;;;;;4837292;29;20392;-78
2022/11/15 12:31:59;;;;;;;1.10;0.13;;;18.30;94.80;;;;;;4840199;29;20033;-76
2022/11/15 12:34:28;;;;;;;0.00;0.00;;;17.60;94.90;;;;;;4853724;29;20046;-77
2022/11/15 12:36:54;;;;;;;0.00;0.00;;;17.00;94.70;;;;;;4841637;29;20480;-75
2022/11/15 12:39:20;;;;;;;0.00;0.00;;;16.50;94.70;;;;;;4841051;29;20040;-78
2022/11/15 12:41:55;;;;;;;0.00;0.00;;;16.20;94.80;;;;;;4840237;29;20089;-77
2022/11/15 12:44:37;;;;;;;0.00;0.00;;;15.80;94.80;;;;;;4842857;29;20034;-75
2022/11/15 12:47:22;;;;;;;0.00;0.00;;;15.40;94.70;;;;;;4843465;29;20476;-75
2022/11/15 12:49:48;;;;;;;0.00;0.00;;;15.10;94.80;;;;;;4841653;29;20034;-78
2022/11/15 12:52:15;;;;;;;0.00;0.00;;;14.90;95.00;;;;;;4842932;29;20041;-78
2022/11/15 12:54:40;;;;;;;0.00;0.00;;;14.70;95.00;;;;;;4842988;29;20509;-73
2022/11/15 12:57:06;;;;;;;0.10;0.10;;;14.60;95.00;;;;;;4841923;29;20034;-77
2022/11/15 12:59:51;;;;;;;0.00;0.00;;;14.50;95.00;;;;;;4844658;29;20040;-78
2022/11/15 13:02:32;;;;;;;0.00;0.00;;;14.50;95.60;;;;;;4845164;29;20037;-79
2022/11/15 13:05:19;;;;;;;0.00;0.00;;;14.80;96.00;;;;;;4843330;29;20397;-78
2022/11/15 13:07:44;;;;;;;0.00;0.00;;;15.20;96.20;;;;;;4841691;29;20030;-77